Thunder radar more information blitzortung!


Radar de pluja more information rain snow radar


Visita la nostra xarxa de llocs de meteo:

Template documentation
and downloads

And another site



Wind From: 11-12-2017 11:00 Until: 14:59 warning for: Wind Level: Yellow info button

Pagina Historial Weather Underground text

Diari Resum Juliol 2, 2017 Unitats:  Tant    Imperial   Mètric
« Previous Dia
SegĂźent Dia »
Diari Setmana Mensual Anual Personalitzada
  Maxima: Minima: Media:
Temperatura: 89.1 °F /  31.7 °C 62.4 °F /  16.9 °C 77.5 °F /  25.3 °C
Punt de rosada: 53.2 °F /  11.8 °C 42.6 °F /  5.9 °C 48.4 °F /  9.1 °C
Humitat: 68 % 25 % 38 %
Wind Speed: 13.8 mph /  22.2 km/h - 4.2 mph /  6.8 km/h
RĂ fegues de vent: 13.8 mph /  22.2 km/h - -
Vent:- - SSE
Pression baro: 30.2 in /  1021.9 hPa 30.1 in /  1017.8 hPa -
Precipitacions: 0 in /  0.0 mm    
Historical Graphs
 
 
Dades de taula per Juliol 2, 2017
Temps Temperatura Punt de rosada Pression baro Vent Wind Speed RĂ fegues de vent Humitat Rainfall Rate (Hourly)
00:03 66.2 °F /  19.0 °C 46.6 °F /  8.1 °C 30.1 in /  1019.9 hPa Calm     49 % 0 in /  0.0 mm
00:08 66 °F /  18.9 °C 46.8 °F /  8.2 °C 30.1 in /  1019.9 hPa WNW 1.4 mph /  2.3 km/h   50 % 0 in /  0.0 mm
00:13 65.8 °F /  18.8 °C 46.8 °F /  8.2 °C 30.2 in /  1020.9 hPa Calm     50 % 0 in /  0.0 mm
05:25 68.9 °F /  20.5 °C 48.4 °F /  9.1 °C 30.2 in /  1021.9 hPa NE 3 mph /  4.8 km/h 4 mph /  6.4 km/h 48 % 0 in /  0.0 mm
05:35 70.9 °F /  21.6 °C 49.6 °F /  9.8 °C 30.2 in /  1021.9 hPa NE 2 mph /  3.2 km/h 4 mph /  6.4 km/h 47 % 0 in /  0.0 mm
10:42 71.1 °F /  21.7 °C 49.8 °F /  9.9 °C 30.2 in /  1021.9 hPa NNE 3.5 mph /  5.6 km/h 3.5 mph /  5.6 km/h 47 % 0 in /  0.0 mm
10:47 70.9 °F /  21.6 °C 49.6 °F /  9.8 °C 30.2 in /  1020.9 hPa East 4.6 mph /  7.4 km/h 4.6 mph /  7.4 km/h 47 % 0 in /  0.0 mm
10:52 71.1 °F /  21.7 °C 49.3 °F /  9.6 °C 30.2 in /  1020.9 hPa NE 5.8 mph /  9.3 km/h 5.8 mph /  9.3 km/h 46 % 0 in /  0.0 mm
10:57 71.4 °F /  21.9 °C 49.6 °F /  9.8 °C 30.2 in /  1020.9 hPa NW 5.8 mph /  9.3 km/h 5.8 mph /  9.3 km/h 46 % 0 in /  0.0 mm
11:02 71.6 °F /  22.0 °C 49.1 °F /  9.5 °C 30.2 in /  1020.9 hPa NW 4.6 mph /  7.4 km/h 4.6 mph /  7.4 km/h 45 % 0 in /  0.0 mm
11:07 71.8 °F /  22.1 °C 49.3 °F /  9.6 °C 30.2 in /  1020.9 hPa ESE 3.8 mph /  6.1 km/h 3.8 mph /  6.1 km/h 45 % 0 in /  0.0 mm
11:13 72.5 °F /  22.5 °C 49.8 °F /  9.9 °C 30.2 in /  1020.9 hPa North 3.8 mph /  6.1 km/h 3.8 mph /  6.1 km/h 45 % 0 in /  0.0 mm
11:17 73.2 °F /  22.9 °C 50.5 °F /  10.3 °C 30.2 in /  1020.9 hPa WNW 2.3 mph /  3.7 km/h 2.3 mph /  3.7 km/h 45 % 0 in /  0.0 mm
11:22 73.4 °F /  23.0 °C 50.2 °F /  10.1 °C 30.2 in /  1020.9 hPa NE 5.6 mph /  9.0 km/h 5.6 mph /  9.0 km/h 44 % 0 in /  0.0 mm
11:27 73.4 °F /  23.0 °C 50.2 °F /  10.1 °C 30.2 in /  1020.9 hPa NNE 5.9 mph /  9.5 km/h 5.9 mph /  9.5 km/h 44 % 0 in /  0.0 mm
11:32 73.4 °F /  23.0 °C 50.2 °F /  10.1 °C 30.2 in /  1020.9 hPa NNE 5.8 mph /  9.3 km/h 5.8 mph /  9.3 km/h 44 % 0 in /  0.0 mm
11:33 73.4 °F /  23.0 °C 50.2 °F /  10.1 °C 30.2 in /  1020.9 hPa NE 5.9 mph /  9.5 km/h 5.9 mph /  9.5 km/h 44 % 0 in /  0.0 mm
11:38 73.4 °F /  23.0 °C 49.5 °F /  9.7 °C 30.2 in /  1020.9 hPa NNE 5.8 mph /  9.3 km/h 5.8 mph /  9.3 km/h 43 % 0 in /  0.0 mm
11:43 74.1 °F /  23.4 °C 50.2 °F /  10.1 °C 30.2 in /  1020.9 hPa NNE 6.9 mph /  11.1 km/h 6.9 mph /  11.1 km/h 43 % 0 in /  0.0 mm
11:48 74.3 °F /  23.5 °C 49.6 °F /  9.8 °C 30.2 in /  1020.9 hPa ESE 4.6 mph /  7.4 km/h 4.6 mph /  7.4 km/h 42 % 0 in /  0.0 mm
11:53 75 °F /  23.9 °C 51.1 °F /  10.6 °C 30.2 in /  1020.9 hPa ENE 4.6 mph /  7.4 km/h 4.6 mph /  7.4 km/h 43 % 0 in /  0.0 mm
11:58 75.2 °F /  24.0 °C 50.5 °F /  10.3 °C 30.2 in /  1020.9 hPa WSW 2.6 mph /  4.2 km/h 2.6 mph /  4.2 km/h 42 % 0 in /  0.0 mm
12:03 75.9 °F /  24.4 °C 51.3 °F /  10.7 °C 30.2 in /  1020.9 hPa NE 5.8 mph /  9.3 km/h 5.8 mph /  9.3 km/h 42 % 0 in /  0.0 mm
12:08 75.9 °F /  24.4 °C 51.3 °F /  10.7 °C 30.2 in /  1020.9 hPa NE 3.1 mph /  5.0 km/h 3.1 mph /  5.0 km/h 42 % 0 in /  0.0 mm
12:13 75.9 °F /  24.4 °C 50.5 °F /  10.3 °C 30.1 in /  1019.9 hPa NE 6.9 mph /  11.1 km/h 6.9 mph /  11.1 km/h 41 % 0 in /  0.0 mm
12:18 76.3 °F /  24.6 °C 50.7 °F /  10.4 °C 30.1 in /  1019.9 hPa East 6.4 mph /  10.3 km/h 6.4 mph /  10.3 km/h 41 % 0 in /  0.0 mm
12:23 75.6 °F /  24.2 °C 49.5 °F /  9.7 °C 30.1 in /  1019.9 hPa East 5.8 mph /  9.3 km/h 5.8 mph /  9.3 km/h 40 % 0 in /  0.0 mm
12:28 77.2 °F /  25.1 °C 51.1 °F /  10.6 °C 30.1 in /  1019.9 hPa NW 4.6 mph /  7.4 km/h 4.6 mph /  7.4 km/h 40 % 0 in /  0.0 mm
12:33 79.3 °F /  26.3 °C 52.2 °F /  11.2 °C 30.1 in /  1019.9 hPa ESE 3.3 mph /  5.3 km/h 3.3 mph /  5.3 km/h 39 % 0 in /  0.0 mm
12:38 80.2 °F /  26.8 °C 53.1 °F /  11.7 °C 30.1 in /  1019.9 hPa SSW 2.3 mph /  3.7 km/h 2.3 mph /  3.7 km/h 39 % 0 in /  0.0 mm
12:43 81.3 °F /  27.4 °C 53.2 °F /  11.8 °C 30.2 in /  1020.9 hPa South 3.8 mph /  6.1 km/h 3.8 mph /  6.1 km/h 38 % 0 in /  0.0 mm
12:48 81.1 °F /  27.3 °C 52.3 °F /  11.3 °C 30.2 in /  1020.9 hPa SW 3.3 mph /  5.3 km/h 3.3 mph /  5.3 km/h 37 % 0 in /  0.0 mm
12:53 81.7 °F /  27.6 °C 52.9 °F /  11.6 °C 30.2 in /  1020.9 hPa NNW 5.8 mph /  9.3 km/h 5.8 mph /  9.3 km/h 37 % 0 in /  0.0 mm
12:58 81.1 °F /  27.3 °C 51.6 °F /  10.9 °C 30.1 in /  1019.9 hPa SW 4.6 mph /  7.4 km/h 4.6 mph /  7.4 km/h 36 % 0 in /  0.0 mm
13:03 81.5 °F /  27.5 °C 51.3 °F /  10.7 °C 30.1 in /  1019.9 hPa SW 5.8 mph /  9.3 km/h 5.8 mph /  9.3 km/h 35 % 0 in /  0.0 mm
13:08 81.5 °F /  27.5 °C 51.3 °F /  10.7 °C 30.1 in /  1019.9 hPa WNW 4.3 mph /  6.9 km/h 4.3 mph /  6.9 km/h 35 % 0 in /  0.0 mm
13:13 81.5 °F /  27.5 °C 50.4 °F /  10.2 °C 30.1 in /  1019.9 hPa SW 3.3 mph /  5.3 km/h 3.3 mph /  5.3 km/h 34 % 0 in /  0.0 mm
13:18 81.9 °F /  27.7 °C 49.8 °F /  9.9 °C 30.1 in /  1019.9 hPa West 6.9 mph /  11.1 km/h 6.9 mph /  11.1 km/h 33 % 0 in /  0.0 mm
13:23 81.9 °F /  27.7 °C 49.1 °F /  9.5 °C 30.1 in /  1019.9 hPa SSW 5.8 mph /  9.3 km/h 5.8 mph /  9.3 km/h 32 % 0 in /  0.0 mm
13:28 82.4 °F /  28.0 °C 48.7 °F /  9.3 °C 30.1 in /  1019.9 hPa SSW 4.6 mph /  7.4 km/h 4.6 mph /  7.4 km/h 31 % 0 in /  0.0 mm
13:33 82.4 °F /  28.0 °C 48.7 °F /  9.3 °C 30.1 in /  1019.9 hPa ENE 4.6 mph /  7.4 km/h 4.6 mph /  7.4 km/h 31 % 0 in /  0.0 mm
13:38 82.6 °F /  28.1 °C 48 °F /  8.9 °C 30.1 in /  1019.9 hPa West 5.8 mph /  9.3 km/h 5.8 mph /  9.3 km/h 30 % 0 in /  0.0 mm
13:43 83.5 °F /  28.6 °C 48.7 °F /  9.3 °C 30.1 in /  1019.9 hPa West 5.4 mph /  8.7 km/h 5.4 mph /  8.7 km/h 30 % 0 in /  0.0 mm
13:48 83.5 °F /  28.6 °C 48.7 °F /  9.3 °C 30.1 in /  1019.9 hPa WSW 4.6 mph /  7.4 km/h 4.6 mph /  7.4 km/h 30 % 0 in /  0.0 mm
13:53 82.9 °F /  28.3 °C 47.5 °F /  8.6 °C 30.1 in /  1019.9 hPa ESE 4.6 mph /  7.4 km/h 4.6 mph /  7.4 km/h 29 % 0 in /  0.0 mm
13:58 83.3 °F /  28.5 °C 48.6 °F /  9.2 °C 30.1 in /  1019.9 hPa NE 4 mph /  6.4 km/h 4 mph /  6.4 km/h 30 % 0 in /  0.0 mm
14:03 84 °F /  28.9 °C 48.4 °F /  9.1 °C 30.1 in /  1019.9 hPa West 3.5 mph /  5.6 km/h 3.5 mph /  5.6 km/h 29 % 0 in /  0.0 mm
14:08 83.5 °F /  28.6 °C 47.8 °F /  8.8 °C 30.1 in /  1019.9 hPa West 4.6 mph /  7.4 km/h 4.6 mph /  7.4 km/h 29 % 0 in /  0.0 mm
14:13 84.4 °F /  29.1 °C 47.7 °F /  8.7 °C 30.1 in /  1019.9 hPa WSW 5.8 mph /  9.3 km/h 5.8 mph /  9.3 km/h 28 % 0 in /  0.0 mm
14:18 84.6 °F /  29.2 °C 47.8 °F /  8.8 °C 30.1 in /  1019.9 hPa SW 4.6 mph /  7.4 km/h 4.6 mph /  7.4 km/h 28 % 0 in /  0.0 mm
14:23 85.1 °F /  29.5 °C 48.4 °F /  9.1 °C 30.1 in /  1019.9 hPa SSW 3.5 mph /  5.6 km/h 3.5 mph /  5.6 km/h 28 % 0 in /  0.0 mm
14:28 85.6 °F /  29.8 °C 47.8 °F /  8.8 °C 30.1 in /  1018.8 hPa West 3.5 mph /  5.6 km/h 3.5 mph /  5.6 km/h 27 % 0 in /  0.0 mm
14:33 84.7 °F /  29.3 °C 47.1 °F /  8.4 °C 30.1 in /  1018.8 hPa South 2.3 mph /  3.7 km/h 2.3 mph /  3.7 km/h 27 % 0 in /  0.0 mm
14:38 84.9 °F /  29.4 °C 47.1 °F /  8.4 °C 30.1 in /  1018.8 hPa ENE 4.6 mph /  7.4 km/h 4.6 mph /  7.4 km/h 27 % 0 in /  0.0 mm
14:43 85.3 °F /  29.6 °C 47.5 °F /  8.6 °C 30.1 in /  1019.9 hPa SW 5.6 mph /  9.0 km/h 5.6 mph /  9.0 km/h 27 % 0 in /  0.0 mm
14:48 85.8 °F /  29.9 °C 48 °F /  8.9 °C 30.1 in /  1019.9 hPa SSW 5.8 mph /  9.3 km/h 5.8 mph /  9.3 km/h 27 % 0 in /  0.0 mm
14:53 83.8 °F /  28.8 °C 47.1 °F /  8.4 °C 30.1 in /  1019.9 hPa WSW 3.3 mph /  5.3 km/h 3.3 mph /  5.3 km/h 28 % 0 in /  0.0 mm
14:58 84.6 °F /  29.2 °C 46.9 °F /  8.3 °C 30.1 in /  1019.9 hPa South 3.5 mph /  5.6 km/h 3.5 mph /  5.6 km/h 27 % 0 in /  0.0 mm
15:01 85.6 °F /  29.8 °C 47.8 °F /  8.8 °C 30.1 in /  1019.9 hPa WSW 3.8 mph /  6.1 km/h 3.8 mph /  6.1 km/h 27 % 0 in /  0.0 mm
15:06 84.4 °F /  29.1 °C 46.8 °F /  8.2 °C 30.1 in /  1019.9 hPa SW 4.6 mph /  7.4 km/h 4.6 mph /  7.4 km/h 27 % 0 in /  0.0 mm
15:11 85.3 °F /  29.6 °C 47.5 °F /  8.6 °C 30.1 in /  1019.9 hPa WSW 3.5 mph /  5.6 km/h 3.5 mph /  5.6 km/h 27 % 0 in /  0.0 mm
15:16 86.7 °F /  30.4 °C 48.7 °F /  9.3 °C 30.1 in /  1019.9 hPa WNW 5.8 mph /  9.3 km/h 5.8 mph /  9.3 km/h 27 % 0 in /  0.0 mm
15:21 87.3 °F /  30.7 °C 48.2 °F /  9.0 °C 30.1 in /  1019.9 hPa SW 4 mph /  6.4 km/h 4 mph /  6.4 km/h 26 % 0 in /  0.0 mm
15:26 86.2 °F /  30.1 °C 47.3 °F /  8.5 °C 30.1 in /  1018.8 hPa ENE 5.8 mph /  9.3 km/h 5.8 mph /  9.3 km/h 26 % 0 in /  0.0 mm
15:31 86.9 °F /  30.5 °C 47.8 °F /  8.8 °C 30.1 in /  1018.8 hPa SSE 4.6 mph /  7.4 km/h 4.6 mph /  7.4 km/h 26 % 0 in /  0.0 mm
15:36 85.6 °F /  29.8 °C 46.8 °F /  8.2 °C 30.1 in /  1018.8 hPa South 3.5 mph /  5.6 km/h 3.5 mph /  5.6 km/h 26 % 0 in /  0.0 mm
15:41 86.7 °F /  30.4 °C 48.7 °F /  9.3 °C 30.1 in /  1018.8 hPa West 6.9 mph /  11.1 km/h 6.9 mph /  11.1 km/h 27 % 0 in /  0.0 mm
15:46 87.3 °F /  30.7 °C 48.2 °F /  9.0 °C 30.1 in /  1018.8 hPa SW 3.5 mph /  5.6 km/h 3.5 mph /  5.6 km/h 26 % 0 in /  0.0 mm
15:51 87.3 °F /  30.7 °C 48.2 °F /  9.0 °C 30.1 in /  1018.8 hPa North 2.3 mph /  3.7 km/h 2.3 mph /  3.7 km/h 26 % 0 in /  0.0 mm
15:56 87.8 °F /  31.0 °C 47.7 °F /  8.7 °C 30.1 in /  1018.8 hPa North 4.6 mph /  7.4 km/h 4.6 mph /  7.4 km/h 25 % 0 in /  0.0 mm
16:01 88.2 °F /  31.2 °C 48.9 °F /  9.4 °C 30.1 in /  1018.8 hPa WSW 5.8 mph /  9.3 km/h 5.8 mph /  9.3 km/h 26 % 0 in /  0.0 mm
16:06 88.3 °F /  31.3 °C 49.1 °F /  9.5 °C 30.1 in /  1018.8 hPa West 4.6 mph /  7.4 km/h 4.6 mph /  7.4 km/h 26 % 0 in /  0.0 mm
16:11 88 °F /  31.1 °C 47.7 °F /  8.7 °C 30.1 in /  1018.8 hPa WSW 5.8 mph /  9.3 km/h 5.8 mph /  9.3 km/h 25 % 0 in /  0.0 mm
16:16 88.5 °F /  31.4 °C 49.3 °F /  9.6 °C 30.1 in /  1018.8 hPa West 9.2 mph /  14.8 km/h 9.2 mph /  14.8 km/h 26 % 0 in /  0.0 mm
16:21 88.7 °F /  31.5 °C 49.5 °F /  9.7 °C 30.1 in /  1018.8 hPa West 4.9 mph /  7.9 km/h 4.9 mph /  7.9 km/h 26 % 0 in /  0.0 mm
16:26 89.1 °F /  31.7 °C 49.6 °F /  9.8 °C 30.1 in /  1018.8 hPa SW 5.8 mph /  9.3 km/h 5.8 mph /  9.3 km/h 26 % 0 in /  0.0 mm
16:31 87.1 °F /  30.6 °C 48 °F /  8.9 °C 30.1 in /  1018.8 hPa SW 3.8 mph /  6.1 km/h 3.8 mph /  6.1 km/h 26 % 0 in /  0.0 mm
16:36 87.8 °F /  31.0 °C 48.6 °F /  9.2 °C 30.1 in /  1018.8 hPa SW 3.5 mph /  5.6 km/h 3.5 mph /  5.6 km/h 26 % 0 in /  0.0 mm
16:41 86.9 °F /  30.5 °C 47.8 °F /  8.8 °C 30.1 in /  1017.8 hPa SW 8.1 mph /  13.0 km/h 8.1 mph /  13.0 km/h 26 % 0 in /  0.0 mm
16:42 86.9 °F /  30.5 °C 47.8 °F /  8.8 °C 30.1 in /  1017.8 hPa SSW 10.5 mph /  16.9 km/h 10.5 mph /  16.9 km/h 26 % 0 in /  0.0 mm
16:47 86.9 °F /  30.5 °C 47.8 °F /  8.8 °C 30.1 in /  1017.8 hPa SSW 4.6 mph /  7.4 km/h 4.6 mph /  7.4 km/h 26 % 0 in /  0.0 mm
16:52 86.9 °F /  30.5 °C 47.8 °F /  8.8 °C 30.1 in /  1017.8 hPa SW 4.6 mph /  7.4 km/h 4.6 mph /  7.4 km/h 26 % 0 in /  0.0 mm
16:57 87.8 °F /  31.0 °C 48.6 °F /  9.2 °C 30.1 in /  1017.8 hPa West 9.2 mph /  14.8 km/h 9.2 mph /  14.8 km/h 26 % 0 in /  0.0 mm
17:02 87.8 °F /  31.0 °C 48.6 °F /  9.2 °C 30.1 in /  1017.8 hPa South 6.9 mph /  11.1 km/h 6.9 mph /  11.1 km/h 26 % 0 in /  0.0 mm
17:07 88.3 °F /  31.3 °C 49.1 °F /  9.5 °C 30.1 in /  1017.8 hPa South 5.8 mph /  9.3 km/h 5.8 mph /  9.3 km/h 26 % 0 in /  0.0 mm
17:12 87.6 °F /  30.9 °C 48.6 °F /  9.2 °C 30.1 in /  1017.8 hPa South 8.1 mph /  13.0 km/h 8.1 mph /  13.0 km/h 26 % 0 in /  0.0 mm
17:17 86.7 °F /  30.4 °C 47.7 °F /  8.7 °C 30.1 in /  1017.8 hPa SW 10.4 mph /  16.7 km/h 10.4 mph /  16.7 km/h 26 % 0 in /  0.0 mm
17:22 87.3 °F /  30.7 °C 48.2 °F /  9.0 °C 30.1 in /  1017.8 hPa SW 5.8 mph /  9.3 km/h 5.8 mph /  9.3 km/h 26 % 0 in /  0.0 mm
17:27 86 °F /  30.0 °C 47.1 °F /  8.4 °C 30.1 in /  1017.8 hPa SW 9.2 mph /  14.8 km/h 9.2 mph /  14.8 km/h 26 % 0 in /  0.0 mm
17:32 86.5 °F /  30.3 °C 47.7 °F /  8.7 °C 30.1 in /  1017.8 hPa SW 8.1 mph /  13.0 km/h 8.1 mph /  13.0 km/h 26 % 0 in /  0.0 mm
17:37 86 °F /  30.0 °C 47.1 °F /  8.4 °C 30.1 in /  1017.8 hPa SW 8.1 mph /  13.0 km/h 8.1 mph /  13.0 km/h 26 % 0 in /  0.0 mm
17:42 86 °F /  30.0 °C 47.1 °F /  8.4 °C 30.1 in /  1017.8 hPa SSW 8.1 mph /  13.0 km/h 8.1 mph /  13.0 km/h 26 % 0 in /  0.0 mm
17:47 86 °F /  30.0 °C 47.1 °F /  8.4 °C 30.1 in /  1017.8 hPa WSW 13.8 mph /  22.2 km/h 13.8 mph /  22.2 km/h 26 % 0 in /  0.0 mm
17:48 85.8 °F /  29.9 °C 46.9 °F /  8.3 °C 30.1 in /  1017.8 hPa SW 9.2 mph /  14.8 km/h 9.2 mph /  14.8 km/h 26 % 0 in /  0.0 mm
17:53 85.3 °F /  29.6 °C 46.6 °F /  8.1 °C 30.1 in /  1017.8 hPa South 12.7 mph /  20.4 km/h 12.7 mph /  20.4 km/h 26 % 0 in /  0.0 mm
17:58 84.7 °F /  29.3 °C 46 °F /  7.8 °C 30.1 in /  1017.8 hPa SSW 12.7 mph /  20.4 km/h 12.7 mph /  20.4 km/h 26 % 0 in /  0.0 mm
18:03 84.6 °F /  29.2 °C 45.9 °F /  7.7 °C 30.1 in /  1017.8 hPa SW 9.2 mph /  14.8 km/h 9.2 mph /  14.8 km/h 26 % 0 in /  0.0 mm
18:08 84.7 °F /  29.3 °C 46 °F /  7.8 °C 30.1 in /  1017.8 hPa SW 9.2 mph /  14.8 km/h 9.2 mph /  14.8 km/h 26 % 0 in /  0.0 mm
18:13 84.7 °F /  29.3 °C 46 °F /  7.8 °C 30.1 in /  1017.8 hPa SSW 5.8 mph /  9.3 km/h 5.8 mph /  9.3 km/h 26 % 0 in /  0.0 mm
18:18 84.6 °F /  29.2 °C 46.9 °F /  8.3 °C 30.1 in /  1017.8 hPa SSW 5.8 mph /  9.3 km/h 5.8 mph /  9.3 km/h 27 % 0 in /  0.0 mm
18:23 84.6 °F /  29.2 °C 46.9 °F /  8.3 °C 30.1 in /  1017.8 hPa SW 10.4 mph /  16.7 km/h 10.4 mph /  16.7 km/h 27 % 0 in /  0.0 mm
18:28 83.5 °F /  28.6 °C 46 °F /  7.8 °C 30.1 in /  1017.8 hPa SSW 12.7 mph /  20.4 km/h 12.7 mph /  20.4 km/h 27 % 0 in /  0.0 mm
18:33 83.1 °F /  28.4 °C 46.6 °F /  8.1 °C 30.1 in /  1017.8 hPa SW 9.2 mph /  14.8 km/h 9.2 mph /  14.8 km/h 28 % 0 in /  0.0 mm
18:38 82.8 °F /  28.2 °C 46.2 °F /  7.9 °C 30.1 in /  1017.8 hPa SSE 9.2 mph /  14.8 km/h 9.2 mph /  14.8 km/h 28 % 0 in /  0.0 mm
18:43 82.4 °F /  28.0 °C 46 °F /  7.8 °C 30.1 in /  1017.8 hPa SSW 10.4 mph /  16.7 km/h 10.4 mph /  16.7 km/h 28 % 0 in /  0.0 mm
18:48 82.6 °F /  28.1 °C 46.2 °F /  7.9 °C 30.1 in /  1017.8 hPa South 5.8 mph /  9.3 km/h 5.8 mph /  9.3 km/h 28 % 0 in /  0.0 mm
18:53 82.4 °F /  28.0 °C 46 °F /  7.8 °C 30.1 in /  1017.8 hPa SW 5.8 mph /  9.3 km/h 6.4 mph /  10.3 km/h 28 % 0 in /  0.0 mm
18:58 82.4 °F /  28.0 °C 46 °F /  7.8 °C 30.1 in /  1018.8 hPa SSW 5.4 mph /  8.7 km/h 5.4 mph /  8.7 km/h 28 % 0 in /  0.0 mm
19:03 81.9 °F /  27.7 °C 45.7 °F /  7.6 °C 30.1 in /  1018.8 hPa SSW 5.8 mph /  9.3 km/h 5.8 mph /  9.3 km/h 28 % 0 in /  0.0 mm
19:08 81.9 °F /  27.7 °C 45.7 °F /  7.6 °C 30.1 in /  1018.8 hPa West 2.3 mph /  3.7 km/h 2.3 mph /  3.7 km/h 28 % 0 in /  0.0 mm
19:10 68.9 °F /  20.5 °C 52.2 °F /  11.2 °C 30.2 in /  1021.9 hPa NE 2 mph /  3.2 km/h 2 mph /  3.2 km/h 55 % 0 in /  0.0 mm
19:13 81.3 °F /  27.4 °C 45.1 °F /  7.3 °C 30.1 in /  1018.8 hPa SSW 4.6 mph /  7.4 km/h 4.6 mph /  7.4 km/h 28 % 0 in /  0.0 mm
19:18 82 °F /  27.8 °C 45.7 °F /  7.6 °C 30.1 in /  1018.8 hPa SW 4.6 mph /  7.4 km/h 4.6 mph /  7.4 km/h 28 % 0 in /  0.0 mm
19:20 68.7 °F /  20.4 °C 52 °F /  11.1 °C 30.2 in /  1020.9 hPa NE 1 mph /  1.6 km/h 3 mph /  4.8 km/h 55 % 0 in /  0.0 mm
19:23 81.7 °F /  27.6 °C 45.3 °F /  7.4 °C 30.1 in /  1018.8 hPa South 3.5 mph /  5.6 km/h 3.5 mph /  5.6 km/h 28 % 0 in /  0.0 mm
19:28 81.5 °F /  27.5 °C 45.1 °F /  7.3 °C 30.1 in /  1018.8 hPa SSW 7.1 mph /  11.4 km/h 7.1 mph /  11.4 km/h 28 % 0 in /  0.0 mm
19:30 68.5 °F /  20.3 °C 52.2 °F /  11.2 °C 30.2 in /  1021.9 hPa NE 1 mph /  1.6 km/h 2 mph /  3.2 km/h 56 % 0 in /  0.0 mm
19:33 81 °F /  27.2 °C 44.8 °F /  7.1 °C 30.1 in /  1018.8 hPa SW 3.5 mph /  5.6 km/h 3.5 mph /  5.6 km/h 28 % 0 in /  0.0 mm
19:38 81.1 °F /  27.3 °C 45 °F /  7.2 °C 30.1 in /  1018.8 hPa SW 4 mph /  6.4 km/h 4 mph /  6.4 km/h 28 % 0 in /  0.0 mm
19:40 68.5 °F /  20.3 °C 52.2 °F /  11.2 °C 30.2 in /  1021.9 hPa NE 1 mph /  1.6 km/h 2 mph /  3.2 km/h 56 % 0 in /  0.0 mm
19:43 81 °F /  27.2 °C 44.8 °F /  7.1 °C 30.1 in /  1018.8 hPa SSE 4.6 mph /  7.4 km/h 4.6 mph /  7.4 km/h 28 % 0 in /  0.0 mm
19:48 80.6 °F /  27.0 °C 44.4 °F /  6.9 °C 30.1 in /  1018.8 hPa SW 5.8 mph /  9.3 km/h 5.8 mph /  9.3 km/h 28 % 0 in /  0.0 mm
19:50 68.4 °F /  20.2 °C 52 °F /  11.1 °C 30.2 in /  1020.9 hPa NE 1 mph /  1.6 km/h 3 mph /  4.8 km/h 56 % 0 in /  0.0 mm
19:53 80.2 °F /  26.8 °C 44.2 °F /  6.8 °C 30.1 in /  1018.8 hPa West 4.6 mph /  7.4 km/h 4.6 mph /  7.4 km/h 28 % 0 in /  0.0 mm
19:58 80.2 °F /  26.8 °C 44.2 °F /  6.8 °C 30.1 in /  1018.8 hPa West 2.4 mph /  3.9 km/h 2.4 mph /  3.9 km/h 28 % 0 in /  0.0 mm
20:00 68 °F /  20.0 °C 52.2 °F /  11.2 °C 30.2 in /  1020.9 hPa NNE 1 mph /  1.6 km/h 2 mph /  3.2 km/h 57 % 0 in /  0.0 mm
20:03 79.9 °F /  26.6 °C 43.9 °F /  6.6 °C 30.1 in /  1018.8 hPa SSW 5.8 mph /  9.3 km/h 5.8 mph /  9.3 km/h 28 % 0 in /  0.0 mm
20:08 79.5 °F /  26.4 °C 44.4 °F /  6.9 °C 30.1 in /  1018.8 hPa SW 5.8 mph /  9.3 km/h 5.8 mph /  9.3 km/h 29 % 0 in /  0.0 mm
20:10 67.8 °F /  19.9 °C 52.5 °F /  11.4 °C 30.2 in /  1020.9 hPa NE 1 mph /  1.6 km/h 3 mph /  4.8 km/h 58 % 0 in /  0.0 mm
20:13 79.5 °F /  26.4 °C 44.4 °F /  6.9 °C 30.1 in /  1018.8 hPa SSW 4.6 mph /  7.4 km/h 4.6 mph /  7.4 km/h 29 % 0 in /  0.0 mm
20:18 79.2 °F /  26.2 °C 44.2 °F /  6.8 °C 30.1 in /  1018.8 hPa SSW 8.1 mph /  13.0 km/h 8.1 mph /  13.0 km/h 29 % 0 in /  0.0 mm
20:20 67.6 °F /  19.8 °C 52.9 °F /  11.6 °C 30.2 in /  1021.9 hPa Calm   2 mph /  3.2 km/h 59 % 0 in /  0.0 mm
20:23 78.8 °F /  26.0 °C 43.9 °F /  6.6 °C 30.1 in /  1018.8 hPa SW 2.9 mph /  4.7 km/h 2.9 mph /  4.7 km/h 29 % 0 in /  0.0 mm
20:28 78.4 °F /  25.8 °C 43.5 °F /  6.4 °C 30.1 in /  1018.8 hPa WSW 3.6 mph /  5.8 km/h 3.6 mph /  5.8 km/h 29 % 0 in /  0.0 mm
20:30 67.6 °F /  19.8 °C 52.9 °F /  11.6 °C 30.2 in /  1021.9 hPa ENE 2 mph /  3.2 km/h 2 mph /  3.2 km/h 59 % 0 in /  0.0 mm
20:33 78.3 °F /  25.7 °C 43.3 °F /  6.3 °C 30.1 in /  1018.8 hPa South 5.8 mph /  9.3 km/h 5.8 mph /  9.3 km/h 29 % 0 in /  0.0 mm
20:38 77.7 °F /  25.4 °C 43 °F /  6.1 °C 30.1 in /  1018.8 hPa SSW 4.6 mph /  7.4 km/h 4.6 mph /  7.4 km/h 29 % 0 in /  0.0 mm
20:40 67.5 °F /  19.7 °C 52.5 °F /  11.4 °C 30.2 in /  1021.9 hPa ENE 1 mph /  1.6 km/h 2 mph /  3.2 km/h 59 % 0 in /  0.0 mm
20:43 77.5 °F /  25.3 °C 42.8 °F /  6.0 °C 30.1 in /  1018.8 hPa SW 2.6 mph /  4.2 km/h 2.6 mph /  4.2 km/h 29 % 0 in /  0.0 mm
20:48 77.4 °F /  25.2 °C 42.6 °F /  5.9 °C 30.1 in /  1018.8 hPa SW 4.6 mph /  7.4 km/h 4.6 mph /  7.4 km/h 29 % 0 in /  0.0 mm
20:50 67.3 °F /  19.6 °C 52.5 °F /  11.4 °C 30.2 in /  1020.9 hPa NE 1 mph /  1.6 km/h 2 mph /  3.2 km/h 59 % 0 in /  0.0 mm
20:53 77 °F /  25.0 °C 43.2 °F /  6.2 °C 30.1 in /  1018.8 hPa WSW 3.5 mph /  5.6 km/h 3.5 mph /  5.6 km/h 30 % 0 in /  0.0 mm
20:58 76.6 °F /  24.8 °C 43.7 °F /  6.5 °C 30.1 in /  1019.9 hPa SW 3.8 mph /  6.1 km/h 3.8 mph /  6.1 km/h 31 % 0 in /  0.0 mm
21:00 67.1 °F /  19.5 °C 52.3 °F /  11.3 °C 30.2 in /  1020.9 hPa NE 1 mph /  1.6 km/h 2 mph /  3.2 km/h 59 % 0 in /  0.0 mm
21:03 76.3 °F /  24.6 °C 43.3 °F /  6.3 °C 30.1 in /  1019.9 hPa WSW 4.6 mph /  7.4 km/h 4.6 mph /  7.4 km/h 31 % 0 in /  0.0 mm
21:08 75.9 °F /  24.4 °C 43.2 °F /  6.2 °C 30.1 in /  1019.9 hPa SW 4.6 mph /  7.4 km/h 4.6 mph /  7.4 km/h 31 % 0 in /  0.0 mm
21:10 66.9 °F /  19.4 °C 52.5 °F /  11.4 °C 30.2 in /  1020.9 hPa NE 1 mph /  1.6 km/h 2 mph /  3.2 km/h 60 % 0 in /  0.0 mm
21:13 75.6 °F /  24.2 °C 43.5 °F /  6.4 °C 30.1 in /  1019.9 hPa SW 4.6 mph /  7.4 km/h 4.6 mph /  7.4 km/h 32 % 0 in /  0.0 mm
21:18 75.4 °F /  24.1 °C 43.5 °F /  6.4 °C 30.1 in /  1019.9 hPa WSW 3.5 mph /  5.6 km/h 3.5 mph /  5.6 km/h 32 % 0 in /  0.0 mm
21:20 66.7 °F /  19.3 °C 52.9 °F /  11.6 °C 30.2 in /  1020.9 hPa NE 1 mph /  1.6 km/h 1 mph /  1.6 km/h 61 % 0 in /  0.0 mm
21:23 75 °F /  23.9 °C 43.2 °F /  6.2 °C 30.1 in /  1019.9 hPa SSW 2.6 mph /  4.2 km/h 2.6 mph /  4.2 km/h 32 % 0 in /  0.0 mm
21:28 74.8 °F /  23.8 °C 43.9 °F /  6.6 °C 30.1 in /  1019.9 hPa West 4.6 mph /  7.4 km/h 4.6 mph /  7.4 km/h 33 % 0 in /  0.0 mm
21:30 66.2 °F /  19.0 °C 52 °F /  11.1 °C 30.2 in /  1020.9 hPa Calm     60 % 0 in /  0.0 mm
21:33 74.5 °F /  23.6 °C 43.5 °F /  6.4 °C 30.1 in /  1019.9 hPa West 3.5 mph /  5.6 km/h 3.5 mph /  5.6 km/h 33 % 0 in /  0.0 mm
21:38 74.1 °F /  23.4 °C 43.2 °F /  6.2 °C 30.1 in /  1019.9 hPa SW 2.4 mph /  3.9 km/h 2.4 mph /  3.9 km/h 33 % 0 in /  0.0 mm
21:40 65.7 °F /  18.7 °C 52.3 °F /  11.3 °C 30.2 in /  1020.9 hPa Calm   2 mph /  3.2 km/h 62 % 0 in /  0.0 mm
21:43 73.8 °F /  23.2 °C 43.5 °F /  6.4 °C 30.1 in /  1019.9 hPa SW 2.3 mph /  3.7 km/h 2.3 mph /  3.7 km/h 34 % 0 in /  0.0 mm
21:48 73.6 °F /  23.1 °C 43.5 °F /  6.4 °C 30.1 in /  1019.9 hPa WSW 2.3 mph /  3.7 km/h 2.3 mph /  3.7 km/h 34 % 0 in /  0.0 mm
21:50 65.5 °F /  18.6 °C 52.5 °F /  11.4 °C 30.2 in /  1020.9 hPa Calm     63 % 0 in /  0.0 mm
21:53 73.2 °F /  22.9 °C 44.8 °F /  7.1 °C 30.1 in /  1019.9 hPa SW 1.6 mph /  2.6 km/h   36 % 0 in /  0.0 mm
21:58 72.9 °F /  22.7 °C 45.1 °F /  7.3 °C 30.1 in /  1019.9 hPa SW 2.3 mph /  3.7 km/h 2.3 mph /  3.7 km/h 37 % 0 in /  0.0 mm
22:00 65.1 °F /  18.4 °C 52.2 °F /  11.2 °C 30.2 in /  1020.9 hPa Calm     63 % 0 in /  0.0 mm
22:03 72.7 °F /  22.6 °C 45 °F /  7.2 °C 30.1 in /  1019.9 hPa Calm     37 % 0 in /  0.0 mm
22:08 72.3 °F /  22.4 °C 45.3 °F /  7.4 °C 30.1 in /  1019.9 hPa SSE 1.2 mph /  1.9 km/h 1.2 mph /  1.9 km/h 38 % 0 in /  0.0 mm
22:10 64.6 °F /  18.1 °C 51.6 °F /  10.9 °C 30.2 in /  1020.9 hPa Calm   2 mph /  3.2 km/h 63 % 0 in /  0.0 mm
22:13 72.1 °F /  22.3 °C 45.1 °F /  7.3 °C 30.1 in /  1019.9 hPa Calm     38 % 0 in /  0.0 mm
22:18 72.1 °F /  22.3 °C 45.1 °F /  7.3 °C 30.1 in /  1019.9 hPa WNW 1.2 mph /  1.9 km/h   38 % 0 in /  0.0 mm
22:20 64.2 °F /  17.9 °C 51.8 °F /  11.0 °C 30.2 in /  1020.9 hPa Calm     64 % 0 in /  0.0 mm
22:23 72.1 °F /  22.3 °C 45.9 °F /  7.7 °C 30.1 in /  1019.9 hPa NE 4.6 mph /  7.4 km/h 4.6 mph /  7.4 km/h 39 % 0 in /  0.0 mm
22:28 72.1 °F /  22.3 °C 47.1 °F /  8.4 °C 30.2 in /  1020.9 hPa NNE 3.5 mph /  5.6 km/h 3.5 mph /  5.6 km/h 41 % 0 in /  0.0 mm
22:30 64.2 °F /  17.9 °C 51.8 °F /  11.0 °C 30.2 in /  1020.9 hPa Calm     64 % 0 in /  0.0 mm
22:33 71.8 °F /  22.1 °C 47.5 °F /  8.6 °C 30.2 in /  1020.9 hPa North 2.3 mph /  3.7 km/h 2.3 mph /  3.7 km/h 42 % 0 in /  0.0 mm
22:38 71.6 °F /  22.0 °C 48.6 °F /  9.2 °C 30.2 in /  1020.9 hPa East 3.5 mph /  5.6 km/h 3.5 mph /  5.6 km/h 44 % 0 in /  0.0 mm
22:40 64 °F /  17.8 °C 51.6 °F /  10.9 °C 30.2 in /  1020.9 hPa Calm     64 % 0 in /  0.0 mm
22:43 71.2 °F /  21.8 °C 49.5 °F /  9.7 °C 30.2 in /  1020.9 hPa ENE 2.3 mph /  3.7 km/h 2.3 mph /  3.7 km/h 46 % 0 in /  0.0 mm
22:48 71.1 °F /  21.7 °C 49.8 °F /  9.9 °C 30.2 in /  1020.9 hPa NE 2.4 mph /  3.9 km/h 2.4 mph /  3.9 km/h 47 % 0 in /  0.0 mm
22:53 70.7 °F /  21.5 °C 50 °F /  10.0 °C 30.2 in /  1020.9 hPa ENE 3.5 mph /  5.6 km/h 3.5 mph /  5.6 km/h 48 % 0 in /  0.0 mm
22:58 70.5 °F /  21.4 °C 49.8 °F /  9.9 °C 30.2 in /  1020.9 hPa East 2.3 mph /  3.7 km/h 2.3 mph /  3.7 km/h 48 % 0 in /  0.0 mm
23:00 63.7 °F /  17.6 °C 51.3 °F /  10.7 °C 30.1 in /  1019.9 hPa NE 2 mph /  3.2 km/h 2 mph /  3.2 km/h 64 % 0 in /  0.0 mm
23:03 70.3 °F /  21.3 °C 50.4 °F /  10.2 °C 30.2 in /  1020.9 hPa East 2.3 mph /  3.7 km/h 2.3 mph /  3.7 km/h 49 % 0 in /  0.0 mm
23:08 70.3 °F /  21.3 °C 50.7 °F /  10.4 °C 30.2 in /  1020.9 hPa ENE 2.3 mph /  3.7 km/h 2.3 mph /  3.7 km/h 50 % 0 in /  0.0 mm
23:10 63.5 °F /  17.5 °C 51.4 °F /  10.8 °C 30.1 in /  1019.9 hPa Calm   2 mph /  3.2 km/h 65 % 0 in /  0.0 mm
23:13 70.2 °F /  21.2 °C 50.5 °F /  10.3 °C 30.2 in /  1020.9 hPa ENE 2 mph /  3.2 km/h 2 mph /  3.2 km/h 50 % 0 in /  0.0 mm
23:18 70 °F /  21.1 °C 51.1 °F /  10.6 °C 30.2 in /  1020.9 hPa East 3.5 mph /  5.6 km/h 3.5 mph /  5.6 km/h 51 % 0 in /  0.0 mm
23:20 63.3 °F /  17.4 °C 51.3 °F /  10.7 °C 30.2 in /  1020.9 hPa Calm   2 mph /  3.2 km/h 65 % 0 in /  0.0 mm
23:23 70 °F /  21.1 °C 51.1 °F /  10.6 °C 30.2 in /  1020.9 hPa ENE 2.3 mph /  3.7 km/h 2.3 mph /  3.7 km/h 51 % 0 in /  0.0 mm
23:28 69.6 °F /  20.9 °C 51.3 °F /  10.7 °C 30.2 in /  1020.9 hPa NNE 2.3 mph /  3.7 km/h 2.3 mph /  3.7 km/h 52 % 0 in /  0.0 mm
23:30 63 °F /  17.2 °C 51.1 °F /  10.6 °C 30.1 in /  1019.9 hPa Calm   1 mph /  1.6 km/h 65 % 0 in /  0.0 mm
23:33 69.6 °F /  20.9 °C 51.6 °F /  10.9 °C 30.2 in /  1020.9 hPa ENE 3.3 mph /  5.3 km/h 3.3 mph /  5.3 km/h 53 % 0 in /  0.0 mm
23:38 69.4 °F /  20.8 °C 51.6 °F /  10.9 °C 30.2 in /  1020.9 hPa NE 2.3 mph /  3.7 km/h 2.3 mph /  3.7 km/h 53 % 0 in /  0.0 mm
23:40 62.6 °F /  17.0 °C 51.1 °F /  10.6 °C 30.1 in /  1019.9 hPa Calm     66 % 0 in /  0.0 mm
23:43 69.3 °F /  20.7 °C 51.4 °F /  10.8 °C 30.2 in /  1020.9 hPa NE 2.3 mph /  3.7 km/h 2.3 mph /  3.7 km/h 53 % 0 in /  0.0 mm
23:48 69.3 °F /  20.7 °C 51.4 °F /  10.8 °C 30.2 in /  1020.9 hPa ENE 2 mph /  3.2 km/h 2 mph /  3.2 km/h 53 % 0 in /  0.0 mm
23:50 62.4 °F /  16.9 °C 51.6 °F /  10.9 °C 30.2 in /  1020.9 hPa Calm   1 mph /  1.6 km/h 68 % 0 in /  0.0 mm
23:53 69.1 °F /  20.6 °C 51.6 °F /  10.9 °C 30.2 in /  1020.9 hPa NNE 2.3 mph /  3.7 km/h 2.3 mph /  3.7 km/h 54 % 0 in /  0.0 mm
23:58 69.1 °F /  20.6 °C 51.6 °F /  10.9 °C 30.2 in /  1021.9 hPa NE 2.3 mph /  3.7 km/h 2.3 mph /  3.7 km/h 54 % 0 in /  0.0 mm
Meteo Sesrovires
Elogis d' Weather Underground - 3.5 mb

Guio original per  Jim McMurry - jmcmurry@mwt.net Adaptat per a la plantilla per  Wim van der Kuil - Leuven-Template.eu

Trobareu la nostra informacio del temps tambe a:

Weather Underground

AWEKAS